createdAt,value
2022-10-22T00:02:21.077Z,89.10
2022-10-22T00:04:49.002Z,90.00
2022-10-22T00:07:17.264Z,89.10
2022-10-22T00:09:44.231Z,90.00
2022-10-22T00:12:14.042Z,90.10
2022-10-22T00:14:41.467Z,89.40
2022-10-22T00:17:11.566Z,90.20
2022-10-22T00:19:39.075Z,90.50
2022-10-22T00:22:06.316Z,90.30
2022-10-22T00:24:34.020Z,90.20
2022-10-22T00:27:00.955Z,90.40
2022-10-22T00:29:27.708Z,90.10
2022-10-22T00:34:23.036Z,90.80
2022-10-22T00:36:51.242Z,90.40
2022-10-22T00:39:20.195Z,89.80
2022-10-22T00:41:48.977Z,90.20
2022-10-22T00:44:53.010Z,90.20
2022-10-22T00:47:20.602Z,90.40
2022-10-22T00:49:47.360Z,90.00
2022-10-22T00:52:14.544Z,90.20
2022-10-22T00:54:41.719Z,90.10
2022-10-22T00:57:08.956Z,90.10
2022-10-22T00:59:36.674Z,90.60
2022-10-22T01:02:04.184Z,90.90
2022-10-22T01:04:30.920Z,90.70
2022-10-22T01:06:57.671Z,91.00
2022-10-22T01:09:46.035Z,91.10
2022-10-22T01:12:21.028Z,90.90
2022-10-22T01:15:05.715Z,91.10
2022-10-22T01:17:41.191Z,91.20
2022-10-22T01:20:39.267Z,90.80
2022-10-22T01:23:24.688Z,90.90
2022-10-22T01:26:33.690Z,91.20
2022-10-22T01:29:00.340Z,91.30
2022-10-22T01:31:34.465Z,91.00
2022-10-22T01:34:01.552Z,90.80
2022-10-22T01:36:31.233Z,90.90
2022-10-22T01:38:59.187Z,91.30
2022-10-22T01:41:29.928Z,91.60
2022-10-22T01:43:56.770Z,91.60
2022-10-22T01:46:25.666Z,91.20
2022-10-22T01:49:16.817Z,91.10
2022-10-22T01:52:02.193Z,91.40
2022-10-22T01:54:40.065Z,92.00
2022-10-22T01:57:51.151Z,92.00
2022-10-22T02:00:19.069Z,91.70
2022-10-22T02:02:55.219Z,92.30
2022-10-22T02:05:25.429Z,91.60
2022-10-22T02:08:00.986Z,91.90
2022-10-22T02:10:29.508Z,92.40
2022-10-22T02:12:57.820Z,92.00
2022-10-22T02:15:26.343Z,92.00
2022-10-22T02:17:53.554Z,92.10
2022-10-22T02:20:24.365Z,91.60
2022-10-22T02:22:51.060Z,91.50
2022-10-22T02:25:17.819Z,91.50
2022-10-22T02:27:47.956Z,91.80
2022-10-22T02:30:17.448Z,91.60
2022-10-22T02:32:51.008Z,91.50
2022-10-22T02:35:21.565Z,91.80
2022-10-22T02:37:49.481Z,91.70
2022-10-22T02:40:16.515Z,91.20
2022-10-22T02:42:43.522Z,91.60
2022-10-22T02:45:13.278Z,91.70
2022-10-22T02:47:39.914Z,91.80
2022-10-22T02:50:10.386Z,91.90
2022-10-22T02:52:38.242Z,92.20
2022-10-22T02:55:06.125Z,92.10
2022-10-22T02:57:33.109Z,91.70
2022-10-22T02:59:59.914Z,92.00
2022-10-22T03:02:26.757Z,91.80
2022-10-22T03:04:53.477Z,91.80
2022-10-22T03:07:20.237Z,91.60
2022-10-22T03:09:47.072Z,91.40
2022-10-22T03:12:13.848Z,91.20
2022-10-22T03:14:40.730Z,91.50
2022-10-22T03:17:07.651Z,91.80
2022-10-22T03:19:34.318Z,92.00
2022-10-22T03:22:03.675Z,92.50
2022-10-22T03:24:36.332Z,91.90
2022-10-22T03:27:03.178Z,92.20
2022-10-22T03:29:31.943Z,92.30
2022-10-22T03:31:58.699Z,92.40
2022-10-22T03:34:25.437Z,93.10
2022-10-22T03:36:52.515Z,92.20
2022-10-22T03:39:20.380Z,92.30
2022-10-22T03:41:48.038Z,92.20
2022-10-22T03:44:15.463Z,92.00
2022-10-22T03:46:42.412Z,92.60
2022-10-22T03:49:09.193Z,92.30
2022-10-22T03:51:36.104Z,92.30
2022-10-22T03:54:03.627Z,92.10
2022-10-22T03:56:30.533Z,91.60
2022-10-22T03:58:58.652Z,92.00
2022-10-22T04:01:26.697Z,91.60
2022-10-22T04:03:53.954Z,92.50
2022-10-22T04:06:20.722Z,92.50
2022-10-22T04:08:47.501Z,92.30
2022-10-22T04:11:15.419Z,92.40
2022-10-22T04:13:42.877Z,92.30
2022-10-22T04:16:15.746Z,92.00
2022-10-22T04:18:43.419Z,92.40
2022-10-22T04:21:11.752Z,92.50
2022-10-22T04:23:38.937Z,91.70
2022-10-22T04:26:08.087Z,91.80
2022-10-22T04:28:35.255Z,91.90
2022-10-22T04:31:08.427Z,91.90
2022-10-22T04:33:35.112Z,92.40
2022-10-22T04:36:16.162Z,92.30
2022-10-22T04:38:43.942Z,92.10
2022-10-22T04:41:18.652Z,92.30
2022-10-22T04:43:45.977Z,92.50
2022-10-22T04:46:16.238Z,92.60
2022-10-22T04:48:43.994Z,92.30
2022-10-22T04:51:17.298Z,92.30
2022-10-22T04:53:44.463Z,92.10
2022-10-22T04:56:20.705Z,92.40
2022-10-22T04:58:52.014Z,92.50
2022-10-22T05:01:21.664Z,92.70
2022-10-22T05:03:50.170Z,92.60
2022-10-22T05:06:17.664Z,92.70
2022-10-22T05:08:44.603Z,92.60
2022-10-22T05:11:12.314Z,92.70
2022-10-22T05:13:39.150Z,92.90
2022-10-22T05:16:06.157Z,93.00
2022-10-22T05:18:37.123Z,92.70
2022-10-22T05:21:05.065Z,92.90
2022-10-22T05:23:31.866Z,92.70
2022-10-22T05:26:05.541Z,92.60
2022-10-22T05:28:33.100Z,92.80
2022-10-22T05:31:00.994Z,92.80
2022-10-22T05:33:28.774Z,92.40
2022-10-22T05:35:55.932Z,92.60
2022-10-22T05:38:23.106Z,92.40
2022-10-22T05:41:03.072Z,93.10
2022-10-22T05:43:29.959Z,93.00
2022-10-22T05:45:57.137Z,93.10
2022-10-22T05:48:23.891Z,93.30
2022-10-22T05:50:50.862Z,93.20
2022-10-22T05:53:18.637Z,92.50
2022-10-22T05:55:45.809Z,92.70
2022-10-22T05:58:13.324Z,92.40
2022-10-22T06:00:40.167Z,92.80
2022-10-22T06:03:06.875Z,92.50
2022-10-22T06:05:37.430Z,92.00
2022-10-22T06:08:04.622Z,92.90
2022-10-22T06:10:31.873Z,92.70
2022-10-22T06:12:58.721Z,92.20
2022-10-22T06:15:25.511Z,92.30
2022-10-22T06:17:52.272Z,92.60
2022-10-22T06:20:19.114Z,92.40
2022-10-22T06:22:46.104Z,92.40
2022-10-22T06:25:14.221Z,92.50
2022-10-22T06:27:40.997Z,92.80
2022-10-22T06:30:08.479Z,92.10
2022-10-22T06:32:35.228Z,92.40
2022-10-22T06:35:01.940Z,92.90
2022-10-22T06:37:28.706Z,92.40
2022-10-22T06:39:55.441Z,92.80
2022-10-22T06:42:22.120Z,93.60
2022-10-22T06:44:48.823Z,92.90
2022-10-22T06:47:15.586Z,93.40
2022-10-22T06:49:42.684Z,93.30
2022-10-22T06:52:09.431Z,93.10
2022-10-22T06:54:36.247Z,93.60
2022-10-22T06:57:02.945Z,93.10
2022-10-22T06:59:29.769Z,93.40
2022-10-22T07:01:56.611Z,93.70
2022-10-22T07:04:23.259Z,93.20
2022-10-22T07:06:49.950Z,92.70
2022-10-22T07:11:46.288Z,93.20
2022-10-22T07:14:14.173Z,93.60
2022-10-22T07:16:45.791Z,92.80
2022-10-22T07:19:13.170Z,92.70
2022-10-22T07:21:40.091Z,93.10
2022-10-22T07:24:07.467Z,93.60
2022-10-22T07:26:34.383Z,93.10
2022-10-22T07:29:01.551Z,93.30
2022-10-22T07:31:28.529Z,93.00
2022-10-22T07:33:55.257Z,92.20
2022-10-22T07:36:21.969Z,92.20
2022-10-22T07:38:54.842Z,93.50
2022-10-22T07:41:21.573Z,91.80
2022-10-22T07:43:48.480Z,92.60
2022-10-22T07:46:16.895Z,93.10
2022-10-22T07:48:45.812Z,93.40
2022-10-22T07:51:14.242Z,94.00
2022-10-22T07:53:41.030Z,94.20
2022-10-22T07:56:11.060Z,94.60
2022-10-22T07:58:37.858Z,94.20
2022-10-22T08:01:05.878Z,95.00
2022-10-22T08:03:33.134Z,95.00
2022-10-22T08:06:00.510Z,95.40
2022-10-22T08:08:30.470Z,94.80
2022-10-22T08:11:00.403Z,95.10
2022-10-22T08:13:28.394Z,94.30
2022-10-22T08:15:57.503Z,93.80
2022-10-22T08:18:24.846Z,92.80
2022-10-22T08:20:51.846Z,93.50
2022-10-22T08:23:18.736Z,93.20
2022-10-22T08:25:45.708Z,93.30
2022-10-22T08:28:12.419Z,94.30
2022-10-22T08:30:40.290Z,94.70
2022-10-22T08:33:07.057Z,95.60
2022-10-22T08:35:33.850Z,94.30
2022-10-22T08:38:00.559Z,95.00
2022-10-22T08:40:38.828Z,95.40
2022-10-22T08:43:29.383Z,96.60
2022-10-22T08:46:00.049Z,96.40
2022-10-22T08:48:55.480Z,97.10
2022-10-22T08:51:26.545Z,96.20
2022-10-22T08:54:27.295Z,97.10
2022-10-22T08:57:03.047Z,97.90
2022-10-22T08:59:38.624Z,97.40
2022-10-22T09:02:25.704Z,97.20
2022-10-22T09:05:17.366Z,97.80
2022-10-22T09:07:48.597Z,98.40
2022-10-22T09:10:15.489Z,98.20
2022-10-22T09:12:42.362Z,98.90
2022-10-22T09:15:16.351Z,98.50
2022-10-22T09:17:54.754Z,98.70
2022-10-22T09:20:29.881Z,98.50
2022-10-22T09:23:16.588Z,98.10
2022-10-22T09:25:45.024Z,98.10
2022-10-22T09:28:11.789Z,98.80
2022-10-22T09:30:39.975Z,99.10
2022-10-22T09:33:06.637Z,98.90
2022-10-22T09:35:35.415Z,99.30
2022-10-22T09:38:07.425Z,99.40
2022-10-22T09:40:44.747Z,99.70
2022-10-22T09:43:15.225Z,98.20
2022-10-22T09:45:42.744Z,97.40
2022-10-22T09:48:15.343Z,98.80
2022-10-22T09:50:46.044Z,98.00
2022-10-22T09:53:25.642Z,97.60
2022-10-22T09:58:28.493Z,96.20
2022-10-22T10:01:00.292Z,97.00
2022-10-22T10:03:29.109Z,96.90
2022-10-22T10:06:03.201Z,96.70
2022-10-22T10:08:33.297Z,96.60
2022-10-22T10:11:19.896Z,98.00
2022-10-22T10:13:53.825Z,95.50
2022-10-22T10:16:33.190Z,95.10
2022-10-22T10:19:26.595Z,95.60
2022-10-22T10:22:02.360Z,94.30
2022-10-22T10:24:52.954Z,92.60
2022-10-22T10:27:28.616Z,92.30
2022-10-22T10:30:16.150Z,93.20
2022-10-22T10:32:58.091Z,92.10
2022-10-22T10:35:27.191Z,91.30
2022-10-22T10:38:29.784Z,91.20
2022-10-22T10:41:06.021Z,90.90
2022-10-22T10:43:53.502Z,90.80
2022-10-22T10:46:43.241Z,91.40
2022-10-22T10:49:14.479Z,88.60
2022-10-22T10:52:21.497Z,81.50
2022-10-22T10:54:54.737Z,84.20
2022-10-22T10:57:47.042Z,82.60
2022-10-22T11:00:22.300Z,84.40
2022-10-22T11:03:07.745Z,83.10
2022-10-22T11:05:55.556Z,80.80
2022-10-22T11:08:37.382Z,75.40
2022-10-22T11:11:09.073Z,75.60
2022-10-22T11:13:43.476Z,74.20
2022-10-22T11:16:32.005Z,72.50
2022-10-22T11:19:04.327Z,71.60
2022-10-22T11:21:33.789Z,70.00
2022-10-22T11:24:20.160Z,72.10
2022-10-22T11:27:04.183Z,66.80
2022-10-22T11:29:35.461Z,67.30
2022-10-22T11:32:03.332Z,63.70
2022-10-22T11:34:57.118Z,61.10
2022-10-22T11:37:27.284Z,57.80
2022-10-22T11:40:04.161Z,65.60
2022-10-22T11:42:36.657Z,66.70
2022-10-22T11:45:15.370Z,64.30
2022-10-22T11:47:54.023Z,61.80
2022-10-22T11:50:25.397Z,63.00
2022-10-22T11:53:04.776Z,64.80
2022-10-22T11:55:46.064Z,66.40
2022-10-22T11:58:28.012Z,63.50
2022-10-22T12:01:10.123Z,72.10
2022-10-22T12:03:51.853Z,68.70
2022-10-22T12:06:24.427Z,72.30
2022-10-22T12:08:52.414Z,61.20
2022-10-22T12:11:40.470Z,64.70
2022-10-22T12:14:28.166Z,64.10
2022-10-22T12:16:58.012Z,53.60
2022-10-22T12:19:27.568Z,54.00
2022-10-22T12:21:55.693Z,56.40
2022-10-22T12:24:24.183Z,54.80
2022-10-22T12:26:52.758Z,49.60
2022-10-22T12:29:23.722Z,57.60
2022-10-22T12:31:50.792Z,64.70
2022-10-22T12:34:21.777Z,65.50
2022-10-22T12:36:49.886Z,58.50
2022-10-22T12:39:19.374Z,44.60
2022-10-22T12:41:46.543Z,56.70
2022-10-22T12:44:17.887Z,50.30
2022-10-22T12:46:46.797Z,55.30
2022-10-22T12:49:20.404Z,57.10
2022-10-22T12:51:47.899Z,59.00
2022-10-22T12:54:23.145Z,52.70
2022-10-22T12:56:50.373Z,53.70
2022-10-22T12:59:29.372Z,57.40
2022-10-22T13:01:56.462Z,54.40
2022-10-22T13:04:37.385Z,46.60
2022-10-22T13:07:19.913Z,58.40
2022-10-22T13:10:01.245Z,55.40
2022-10-22T13:12:35.173Z,51.20
2022-10-22T13:15:42.032Z,52.10
2022-10-22T13:18:19.274Z,45.00
2022-10-22T13:21:32.601Z,48.50
2022-10-22T13:24:01.644Z,44.20
2022-10-22T13:26:36.883Z,50.10
2022-10-22T13:29:10.719Z,26.10
2022-10-22T13:31:38.446Z,43.90
2022-10-22T13:34:11.699Z,19.40
2022-10-22T13:36:39.752Z,38.00
2022-10-22T13:39:08.897Z,25.70
2022-10-22T13:44:06.584Z,7.00
2022-10-22T13:49:23.492Z,1.00
2022-10-22T13:51:51.765Z,1.00
2022-10-22T13:54:21.557Z,1.50
2022-10-22T13:56:48.556Z,1.00
2022-10-22T13:59:18.374Z,1.00
2022-10-22T14:01:48.203Z,1.00
2022-10-22T14:04:15.642Z,1.00
2022-10-22T14:06:44.140Z,1.00
2022-10-22T14:09:14.318Z,1.00
2022-10-22T14:11:41.478Z,1.00
2022-10-22T14:14:09.268Z,1.00
2022-10-22T14:16:37.556Z,1.00
2022-10-22T14:19:05.102Z,1.00
2022-10-22T14:21:35.643Z,1.00
2022-10-22T14:24:02.487Z,1.00
2022-10-22T14:26:33.269Z,1.00
2022-10-22T14:29:16.211Z,1.00
2022-10-22T14:31:44.825Z,1.00
2022-10-22T14:34:16.032Z,1.00
2022-10-22T14:36:45.919Z,1.00
2022-10-22T14:39:13.798Z,1.00
2022-10-22T14:41:41.073Z,1.00
2022-10-22T14:44:12.572Z,1.00
2022-10-22T14:46:42.668Z,1.00
2022-10-22T14:49:15.303Z,1.00
2022-10-22T14:51:42.465Z,1.00
2022-10-22T14:54:09.392Z,1.00
2022-10-22T14:59:04.475Z,1.00
2022-10-22T15:01:31.306Z,1.00
2022-10-22T15:03:58.183Z,1.00
2022-10-22T15:06:25.228Z,1.00
2022-10-22T15:08:52.178Z,1.00
2022-10-22T15:11:19.459Z,1.00
2022-10-22T15:13:48.665Z,1.00
2022-10-22T15:16:16.529Z,1.00
2022-10-22T15:18:43.192Z,1.00
2022-10-22T15:21:20.098Z,1.00
2022-10-22T15:23:47.404Z,1.00
2022-10-22T15:26:14.431Z,1.00
2022-10-22T15:28:41.701Z,1.00
2022-10-22T15:31:08.758Z,1.00
2022-10-22T15:33:35.981Z,1.00
2022-10-22T15:36:14.558Z,1.00
2022-10-22T15:38:41.715Z,1.00
2022-10-22T15:41:10.233Z,1.00
2022-10-22T15:43:37.256Z,1.00
2022-10-22T15:46:15.169Z,1.00
2022-10-22T15:48:42.588Z,1.00
2022-10-22T15:51:17.288Z,1.00
2022-10-22T15:53:45.394Z,1.00
2022-10-22T15:56:12.541Z,2.50
2022-10-22T15:58:39.224Z,10.20
2022-10-22T16:01:11.168Z,10.10
2022-10-22T16:03:38.579Z,12.90
2022-10-22T16:06:06.597Z,14.70
2022-10-22T16:08:33.739Z,14.90
2022-10-22T16:11:08.974Z,15.40
2022-10-22T16:13:37.216Z,16.80
2022-10-22T16:16:10.420Z,15.40
2022-10-22T16:18:37.066Z,15.00
2022-10-22T16:21:03.796Z,16.70
2022-10-22T16:23:30.563Z,16.90
2022-10-22T16:25:57.408Z,18.00
2022-10-22T16:28:24.121Z,19.90
2022-10-22T16:30:50.844Z,18.30
2022-10-22T16:33:17.483Z,20.10
2022-10-22T16:35:44.132Z,22.10
2022-10-22T16:38:11.152Z,20.70
2022-10-22T16:40:38.139Z,22.00
2022-10-22T16:43:05.194Z,22.20
2022-10-22T16:45:31.879Z,22.20
2022-10-22T16:47:58.601Z,18.80
2022-10-22T16:50:25.320Z,15.90
2022-10-22T16:52:52.428Z,12.70
2022-10-22T16:55:19.173Z,14.50
2022-10-22T16:57:51.694Z,14.00
2022-10-22T17:00:18.618Z,16.60
2022-10-22T17:02:45.339Z,18.40
2022-10-22T17:05:12.018Z,18.50
2022-10-22T17:07:38.667Z,22.30
2022-10-22T17:10:05.919Z,22.80
2022-10-22T17:15:07.786Z,20.70
2022-10-22T17:17:34.619Z,23.00
2022-10-22T17:20:01.568Z,22.80
2022-10-22T17:22:28.343Z,23.60
2022-10-22T17:25:08.050Z,25.80
2022-10-22T17:27:34.758Z,24.50
2022-10-22T17:30:01.541Z,25.70
2022-10-22T17:32:29.835Z,24.10
2022-10-22T17:34:56.562Z,24.90
2022-10-22T17:37:23.360Z,26.10
2022-10-22T17:39:50.146Z,26.10
2022-10-22T17:42:16.926Z,26.40
2022-10-22T17:44:43.664Z,26.50
2022-10-22T17:47:10.451Z,26.80
2022-10-22T17:49:38.090Z,27.90
2022-10-22T17:52:04.959Z,27.80
2022-10-22T17:54:31.675Z,27.90
2022-10-22T17:56:58.415Z,28.80
2022-10-22T17:59:25.104Z,28.70
2022-10-22T18:01:56.892Z,28.80
2022-10-22T18:04:26.240Z,29.90
2022-10-22T18:06:52.962Z,28.90
2022-10-22T18:09:19.724Z,28.40
2022-10-22T18:11:50.203Z,29.70
2022-10-22T18:14:18.826Z,30.10
2022-10-22T18:16:46.039Z,31.30
2022-10-22T18:19:15.610Z,30.10
2022-10-22T18:21:42.892Z,31.80
2022-10-22T18:24:10.329Z,30.90
2022-10-22T18:26:37.826Z,32.40
2022-10-22T18:29:04.568Z,32.10
2022-10-22T18:31:31.327Z,32.50
2022-10-22T18:33:58.521Z,33.30
2022-10-22T18:36:26.869Z,32.30
2022-10-22T18:38:55.869Z,33.00
2022-10-22T18:41:23.108Z,33.00
2022-10-22T18:43:54.339Z,33.30
2022-10-22T18:46:21.894Z,32.60
2022-10-22T18:48:48.592Z,33.40
2022-10-22T18:51:15.502Z,34.90
2022-10-22T18:53:44.172Z,34.60
2022-10-22T18:56:13.329Z,33.50
2022-10-22T18:58:41.468Z,36.10
2022-10-22T19:01:09.842Z,37.60
2022-10-22T19:03:36.662Z,36.80
2022-10-22T19:06:03.654Z,36.40
2022-10-22T19:08:30.698Z,36.60
2022-10-22T19:10:58.387Z,37.00
2022-10-22T19:13:25.746Z,35.60
2022-10-22T19:15:53.183Z,34.70
2022-10-22T19:18:20.214Z,36.60
2022-10-22T19:20:48.235Z,37.40
2022-10-22T19:23:19.888Z,36.60
2022-10-22T19:25:47.538Z,36.30
2022-10-22T19:28:14.209Z,36.40
2022-10-22T19:30:44.647Z,38.30
2022-10-22T19:33:11.356Z,37.50
2022-10-22T19:35:38.135Z,38.60
2022-10-22T19:38:04.808Z,38.90
2022-10-22T19:40:31.536Z,37.40
2022-10-22T19:42:58.226Z,37.40
2022-10-22T19:45:24.870Z,38.40
2022-10-22T19:47:51.506Z,38.30
2022-10-22T19:50:18.262Z,39.40
2022-10-22T19:52:45.100Z,40.00
2022-10-22T19:55:11.898Z,41.40
2022-10-22T19:57:38.907Z,43.30
2022-10-22T20:00:06.162Z,43.80
2022-10-22T20:02:32.868Z,44.20
2022-10-22T20:04:59.630Z,44.10
2022-10-22T20:07:29.053Z,44.40
2022-10-22T20:09:55.894Z,45.20
2022-10-22T20:12:22.655Z,45.10
2022-10-22T20:14:49.382Z,45.20
2022-10-22T20:17:16.126Z,46.50
2022-10-22T20:19:42.966Z,46.90
2022-10-22T20:22:10.919Z,47.40
2022-10-22T20:24:38.435Z,47.30
2022-10-22T20:27:05.159Z,48.60
2022-10-22T20:29:32.367Z,48.70
2022-10-22T20:32:02.338Z,49.50
2022-10-22T20:34:31.276Z,50.30
2022-10-22T20:36:58.015Z,49.30
2022-10-22T20:39:24.803Z,49.10
2022-10-22T20:41:51.768Z,50.80
2022-10-22T20:44:19.219Z,51.00
2022-10-22T20:46:46.072Z,50.30
2022-10-22T20:49:15.471Z,49.80
2022-10-22T20:51:42.492Z,50.50
2022-10-22T20:54:09.896Z,50.20
2022-10-22T20:56:38.970Z,51.30
2022-10-22T20:59:08.118Z,51.30
2022-10-22T21:01:41.669Z,51.90
2022-10-22T21:04:08.797Z,50.30
2022-10-22T21:06:38.305Z,49.70
2022-10-22T21:09:12.194Z,50.80
2022-10-22T21:11:40.627Z,51.60
2022-10-22T21:14:09.641Z,51.50
2022-10-22T21:16:38.252Z,52.90
2022-10-22T21:19:04.916Z,51.00
2022-10-22T21:21:31.648Z,50.60
2022-10-22T21:23:58.472Z,49.90
2022-10-22T21:26:25.329Z,50.70
2022-10-22T21:28:52.102Z,51.50
2022-10-22T21:31:21.985Z,51.20
2022-10-22T21:33:50.125Z,52.40
2022-10-22T21:36:22.440Z,53.90
2022-10-22T21:38:53.258Z,52.40
2022-10-22T21:41:22.690Z,52.80
2022-10-22T21:43:50.091Z,53.40
2022-10-22T21:46:20.649Z,53.80
2022-10-22T21:48:48.076Z,54.30
2022-10-22T21:51:18.184Z,55.70
2022-10-22T21:53:45.246Z,56.00
2022-10-22T21:56:19.129Z,57.50
2022-10-22T21:58:46.051Z,57.00
2022-10-22T22:01:13.779Z,57.30
2022-10-22T22:03:45.500Z,57.40
2022-10-22T22:06:12.606Z,57.80
2022-10-22T22:08:39.904Z,57.20
2022-10-22T22:11:10.827Z,56.90
2022-10-22T22:13:38.205Z,56.50
2022-10-22T22:16:13.258Z,57.30
2022-10-22T22:18:41.079Z,57.60
2022-10-22T22:21:14.310Z,58.70
2022-10-22T22:23:43.712Z,58.90
2022-10-22T22:26:11.039Z,59.00
2022-10-22T22:28:37.937Z,58.40
2022-10-22T22:31:16.169Z,57.30
2022-10-22T22:33:43.125Z,57.80
2022-10-22T22:36:10.534Z,57.80
2022-10-22T22:38:37.771Z,58.10
2022-10-22T22:41:05.325Z,59.20
2022-10-22T22:43:32.382Z,60.40
2022-10-22T22:46:04.436Z,60.00
2022-10-22T22:48:31.577Z,60.20
2022-10-22T22:51:01.843Z,61.20
2022-10-22T22:53:28.947Z,60.40
2022-10-22T22:56:19.873Z,61.60
2022-10-22T22:58:46.843Z,61.80
2022-10-22T23:01:16.501Z,62.40
2022-10-22T23:03:44.622Z,62.10
2022-10-22T23:06:12.227Z,63.00
2022-10-22T23:08:39.209Z,63.50
2022-10-22T23:11:13.774Z,64.50
2022-10-22T23:13:42.088Z,64.50
2022-10-22T23:16:15.646Z,65.10
2022-10-22T23:18:42.990Z,64.40
2022-10-22T23:21:18.196Z,65.10
2022-10-22T23:23:46.644Z,65.60
2022-10-22T23:26:14.580Z,66.00
2022-10-22T23:28:41.491Z,66.50
2022-10-22T23:31:09.719Z,66.40
2022-10-22T23:33:36.385Z,66.20
2022-10-22T23:36:04.060Z,67.00
2022-10-22T23:38:30.749Z,66.50
2022-10-22T23:40:57.686Z,67.30
2022-10-22T23:43:25.021Z,67.40
2022-10-22T23:45:52.404Z,67.00
2022-10-22T23:48:19.503Z,67.20
2022-10-22T23:50:46.729Z,68.40
2022-10-22T23:53:13.827Z,68.30
2022-10-22T23:55:41.440Z,68.20
2022-10-22T23:58:08.425Z,68.50
